sensor_id;sensor_type;location;lat;lon;timestamp;temperature;humidity
8220;DHT22;4151;51.110;7.020;2022-11-20T00:00:54;3.50;99.90
8220;DHT22;4151;51.110;7.020;2022-11-20T00:03:19;3.50;99.90
8220;DHT22;4151;51.110;7.020;2022-11-20T00:05:45;3.50;99.90
8220;DHT22;4151;51.110;7.020;2022-11-20T00:08:11;3.50;99.90
8220;DHT22;4151;51.110;7.020;2022-11-20T00:10:38;3.60;99.90
8220;DHT22;4151;51.110;7.020;2022-11-20T00:13:03;3.50;99.90
8220;DHT22;4151;51.110;7.020;2022-11-20T00:15:30;3.60;99.90
8220;DHT22;4151;51.110;7.020;2022-11-20T00:17:55;3.60;99.90
8220;DHT22;4151;51.110;7.020;2022-11-20T00:20:21;3.60;99.90
8220;DHT22;4151;51.110;7.020;2022-11-20T00:22:47;3.50;99.90
8220;DHT22;4151;51.110;7.020;2022-11-20T00:25:13;3.50;99.90
8220;DHT22;4151;51.110;7.020;2022-11-20T00:27:39;3.60;99.90
8220;DHT22;4151;51.110;7.020;2022-11-20T00:30:05;3.60;99.90
8220;DHT22;4151;51.110;7.020;2022-11-20T00:32:31;3.60;99.90
8220;DHT22;4151;51.110;7.020;2022-11-20T00:34:56;3.60;99.90
8220;DHT22;4151;51.110;7.020;2022-11-20T00:37:22;3.60;99.90
8220;DHT22;4151;51.110;7.020;2022-11-20T00:39:47;3.60;99.90
8220;DHT22;4151;51.110;7.020;2022-11-20T00:42:13;3.60;99.90
8220;DHT22;4151;51.110;7.020;2022-11-20T00:44:38;3.60;99.90
8220;DHT22;4151;51.110;7.020;2022-11-20T00:47:04;3.50;99.90
8220;DHT22;4151;51.110;7.020;2022-11-20T00:49:30;3.50;99.90
8220;DHT22;4151;51.110;7.020;2022-11-20T00:51:55;3.50;99.90
8220;DHT22;4151;51.110;7.020;2022-11-20T00:54:21;3.50;99.90
8220;DHT22;4151;51.110;7.020;2022-11-20T00:56:46;3.50;99.90
8220;DHT22;4151;51.110;7.020;2022-11-20T00:59:12;3.40;99.90
8220;DHT22;4151;51.110;7.020;2022-11-20T01:01:37;3.40;99.90
8220;DHT22;4151;51.110;7.020;2022-11-20T01:04:04;3.40;99.90
8220;DHT22;4151;51.110;7.020;2022-11-20T01:06:31;3.40;99.90
8220;DHT22;4151;51.110;7.020;2022-11-20T01:09:00;3.50;99.90
8220;DHT22;4151;51.110;7.020;2022-11-20T01:11:28;3.40;99.90
8220;DHT22;4151;51.110;7.020;2022-11-20T01:13:55;3.40;99.90
8220;DHT22;4151;51.110;7.020;2022-11-20T01:18:50;3.40;99.90
8220;DHT22;4151;51.110;7.020;2022-11-20T01:21:18;3.40;99.90
8220;DHT22;4151;51.110;7.020;2022-11-20T01:23:45;3.40;99.90
8220;DHT22;4151;51.110;7.020;2022-11-20T01:26:14;3.40;99.90
8220;DHT22;4151;51.110;7.020;2022-11-20T01:28:41;3.40;99.90
8220;DHT22;4151;51.110;7.020;2022-11-20T01:31:17;3.40;99.90
8220;DHT22;4151;51.110;7.020;2022-11-20T01:33:44;3.40;99.90
8220;DHT22;4151;51.110;7.020;2022-11-20T01:36:11;3.40;99.90
8220;DHT22;4151;51.110;7.020;2022-11-20T01:38:37;3.40;99.90
8220;DHT22;4151;51.110;7.020;2022-11-20T01:41:04;3.40;99.90
8220;DHT22;4151;51.110;7.020;2022-11-20T01:43:29;3.40;99.90
8220;DHT22;4151;51.110;7.020;2022-11-20T01:46:05;3.30;99.90
8220;DHT22;4151;51.110;7.020;2022-11-20T01:48:40;3.30;99.90
8220;DHT22;4151;51.110;7.020;2022-11-20T01:51:20;3.30;99.90
8220;DHT22;4151;51.110;7.020;2022-11-20T01:53:46;3.30;99.90
8220;DHT22;4151;51.110;7.020;2022-11-20T01:56:13;3.30;99.90
8220;DHT22;4151;51.110;7.020;2022-11-20T01:58:44;3.30;99.90
8220;DHT22;4151;51.110;7.020;2022-11-20T02:01:12;3.30;99.90
8220;DHT22;4151;51.110;7.020;2022-11-20T02:03:38;3.30;99.90
8220;DHT22;4151;51.110;7.020;2022-11-20T02:06:10;3.30;99.90
8220;DHT22;4151;51.110;7.020;2022-11-20T02:08:37;3.30;99.90
8220;DHT22;4151;51.110;7.020;2022-11-20T02:11:03;3.40;99.90
8220;DHT22;4151;51.110;7.020;2022-11-20T02:13:29;3.40;99.90
8220;DHT22;4151;51.110;7.020;2022-11-20T02:16:28;3.40;99.90
8220;DHT22;4151;51.110;7.020;2022-11-20T02:18:58;3.30;99.90
8220;DHT22;4151;51.110;7.020;2022-11-20T02:24:12;3.30;99.90
8220;DHT22;4151;51.110;7.020;2022-11-20T02:27:02;3.30;99.90
8220;DHT22;4151;51.110;7.020;2022-11-20T02:32:32;3.30;99.90
8220;DHT22;4151;51.110;7.020;2022-11-20T02:35:07;3.40;99.90
8220;DHT22;4151;51.110;7.020;2022-11-20T02:37:37;3.40;99.90
8220;DHT22;4151;51.110;7.020;2022-11-20T02:40:04;3.40;99.90
8220;DHT22;4151;51.110;7.020;2022-11-20T02:42:30;3.40;99.90
8220;DHT22;4151;51.110;7.020;2022-11-20T02:44:55;3.40;99.90
8220;DHT22;4151;51.110;7.020;2022-11-20T02:47:21;3.40;99.90
8220;DHT22;4151;51.110;7.020;2022-11-20T02:49:46;3.40;99.90
8220;DHT22;4151;51.110;7.020;2022-11-20T02:52:12;3.40;99.90
8220;DHT22;4151;51.110;7.020;2022-11-20T02:54:37;3.40;99.90
8220;DHT22;4151;51.110;7.020;2022-11-20T02:57:03;3.30;99.90
8220;DHT22;4151;51.110;7.020;2022-11-20T02:59:28;3.20;99.90
8220;DHT22;4151;51.110;7.020;2022-11-20T03:01:54;3.20;99.90
8220;DHT22;4151;51.110;7.020;2022-11-20T03:04:19;3.10;99.90
8220;DHT22;4151;51.110;7.020;2022-11-20T03:06:45;3.00;99.90
8220;DHT22;4151;51.110;7.020;2022-11-20T03:09:11;2.90;99.90
8220;DHT22;4151;51.110;7.020;2022-11-20T03:11:36;2.80;99.90
8220;DHT22;4151;51.110;7.020;2022-11-20T03:14:04;2.80;99.90
8220;DHT22;4151;51.110;7.020;2022-11-20T03:16:31;2.70;99.90
8220;DHT22;4151;51.110;7.020;2022-11-20T03:18:57;2.60;99.90
8220;DHT22;4151;51.110;7.020;2022-11-20T03:21:23;2.60;99.90
8220;DHT22;4151;51.110;7.020;2022-11-20T03:23:49;2.60;99.90
8220;DHT22;4151;51.110;7.020;2022-11-20T03:26:17;2.60;99.90
8220;DHT22;4151;51.110;7.020;2022-11-20T03:28:49;2.60;99.90
8220;DHT22;4151;51.110;7.020;2022-11-20T03:31:16;2.60;99.90
8220;DHT22;4151;51.110;7.020;2022-11-20T03:33:42;2.60;99.90
8220;DHT22;4151;51.110;7.020;2022-11-20T03:36:10;2.60;99.90
8220;DHT22;4151;51.110;7.020;2022-11-20T03:38:37;2.60;99.90
8220;DHT22;4151;51.110;7.020;2022-11-20T03:41:05;2.70;99.90
8220;DHT22;4151;51.110;7.020;2022-11-20T03:43:31;2.70;99.90
8220;DHT22;4151;51.110;7.020;2022-11-20T03:45:57;2.70;99.90
8220;DHT22;4151;51.110;7.020;2022-11-20T03:48:22;2.80;99.90
8220;DHT22;4151;51.110;7.020;2022-11-20T03:50:48;2.90;99.90
8220;DHT22;4151;51.110;7.020;2022-11-20T03:53:15;2.90;99.90
8220;DHT22;4151;51.110;7.020;2022-11-20T03:55:41;2.90;99.90
8220;DHT22;4151;51.110;7.020;2022-11-20T03:58:07;3.00;99.90
8220;DHT22;4151;51.110;7.020;2022-11-20T04:00:32;3.00;99.90
8220;DHT22;4151;51.110;7.020;2022-11-20T04:02:59;3.00;99.90
8220;DHT22;4151;51.110;7.020;2022-11-20T04:05:25;3.00;99.90
8220;DHT22;4151;51.110;7.020;2022-11-20T04:07:50;3.00;99.90
8220;DHT22;4151;51.110;7.020;2022-11-20T04:10:16;3.00;99.90
8220;DHT22;4151;51.110;7.020;2022-11-20T04:12:41;3.00;99.90
8220;DHT22;4151;51.110;7.020;2022-11-20T04:15:07;3.00;99.90
8220;DHT22;4151;51.110;7.020;2022-11-20T04:17:33;3.00;99.90
8220;DHT22;4151;51.110;7.020;2022-11-20T04:19:58;3.00;99.90
8220;DHT22;4151;51.110;7.020;2022-11-20T04:22:24;3.00;99.90
8220;DHT22;4151;51.110;7.020;2022-11-20T04:24:50;3.00;99.90
8220;DHT22;4151;51.110;7.020;2022-11-20T04:27:15;3.00;99.90
8220;DHT22;4151;51.110;7.020;2022-11-20T04:29:41;3.00;99.90
8220;DHT22;4151;51.110;7.020;2022-11-20T04:32:06;3.00;99.90
8220;DHT22;4151;51.110;7.020;2022-11-20T04:34:32;3.00;99.90
8220;DHT22;4151;51.110;7.020;2022-11-20T04:36:58;3.00;99.90
8220;DHT22;4151;51.110;7.020;2022-11-20T04:39:23;3.00;99.90
8220;DHT22;4151;51.110;7.020;2022-11-20T04:41:49;3.00;99.90
8220;DHT22;4151;51.110;7.020;2022-11-20T04:44:34;3.00;99.90
8220;DHT22;4151;51.110;7.020;2022-11-20T04:47:00;3.00;99.90
8220;DHT22;4151;51.110;7.020;2022-11-20T04:49:25;3.00;99.90
8220;DHT22;4151;51.110;7.020;2022-11-20T04:51:53;3.00;99.90
8220;DHT22;4151;51.110;7.020;2022-11-20T04:54:19;3.00;99.90
8220;DHT22;4151;51.110;7.020;2022-11-20T04:56:47;3.00;99.90
8220;DHT22;4151;51.110;7.020;2022-11-20T04:59:13;3.00;99.90
8220;DHT22;4151;51.110;7.020;2022-11-20T05:01:38;3.00;99.90
8220;DHT22;4151;51.110;7.020;2022-11-20T05:04:04;3.00;99.90
8220;DHT22;4151;51.110;7.020;2022-11-20T05:06:31;3.00;99.90
8220;DHT22;4151;51.110;7.020;2022-11-20T05:08:56;3.00;99.90
8220;DHT22;4151;51.110;7.020;2022-11-20T05:11:22;3.00;99.90
8220;DHT22;4151;51.110;7.020;2022-11-20T05:13:48;3.00;99.90
8220;DHT22;4151;51.110;7.020;2022-11-20T05:16:17;3.00;99.90
8220;DHT22;4151;51.110;7.020;2022-11-20T05:18:43;3.00;99.90
8220;DHT22;4151;51.110;7.020;2022-11-20T05:21:10;3.00;99.90
8220;DHT22;4151;51.110;7.020;2022-11-20T05:23:36;3.00;99.90
8220;DHT22;4151;51.110;7.020;2022-11-20T05:26:02;3.00;99.90
8220;DHT22;4151;51.110;7.020;2022-11-20T05:28:29;3.00;99.90
8220;DHT22;4151;51.110;7.020;2022-11-20T05:30:56;3.00;99.90
8220;DHT22;4151;51.110;7.020;2022-11-20T05:33:22;3.00;99.90
8220;DHT22;4151;51.110;7.020;2022-11-20T05:35:48;3.00;99.90
8220;DHT22;4151;51.110;7.020;2022-11-20T05:38:14;3.10;99.90
8220;DHT22;4151;51.110;7.020;2022-11-20T05:40:39;3.10;99.90
8220;DHT22;4151;51.110;7.020;2022-11-20T05:43:05;3.10;99.90
8220;DHT22;4151;51.110;7.020;2022-11-20T05:45:31;3.00;99.90
8220;DHT22;4151;51.110;7.020;2022-11-20T05:48:00;3.10;99.90
8220;DHT22;4151;51.110;7.020;2022-11-20T05:50:27;3.10;99.90
8220;DHT22;4151;51.110;7.020;2022-11-20T05:52:53;3.10;99.90
8220;DHT22;4151;51.110;7.020;2022-11-20T05:55:18;3.10;99.90
8220;DHT22;4151;51.110;7.020;2022-11-20T05:57:44;3.10;99.90
8220;DHT22;4151;51.110;7.020;2022-11-20T06:00:10;3.00;99.90
8220;DHT22;4151;51.110;7.020;2022-11-20T06:02:35;3.10;99.90
8220;DHT22;4151;51.110;7.020;2022-11-20T06:05:01;3.10;99.90
8220;DHT22;4151;51.110;7.020;2022-11-20T06:07:27;3.10;99.90
8220;DHT22;4151;51.110;7.020;2022-11-20T06:09:52;3.10;99.90
8220;DHT22;4151;51.110;7.020;2022-11-20T06:12:18;3.10;99.90
8220;DHT22;4151;51.110;7.020;2022-11-20T06:14:43;3.10;99.90
8220;DHT22;4151;51.110;7.020;2022-11-20T06:17:09;3.10;99.90
8220;DHT22;4151;51.110;7.020;2022-11-20T06:19:34;3.10;99.90
8220;DHT22;4151;51.110;7.020;2022-11-20T06:22:00;3.00;99.90
8220;DHT22;4151;51.110;7.020;2022-11-20T06:24:25;3.00;99.90
8220;DHT22;4151;51.110;7.020;2022-11-20T06:26:51;3.00;99.90
8220;DHT22;4151;51.110;7.020;2022-11-20T06:29:17;3.00;99.90
8220;DHT22;4151;51.110;7.020;2022-11-20T06:31:42;3.00;99.90
8220;DHT22;4151;51.110;7.020;2022-11-20T06:34:08;3.00;99.90
8220;DHT22;4151;51.110;7.020;2022-11-20T06:36:34;2.90;99.90
8220;DHT22;4151;51.110;7.020;2022-11-20T06:39:00;2.90;99.90
8220;DHT22;4151;51.110;7.020;2022-11-20T06:41:26;2.80;99.90
8220;DHT22;4151;51.110;7.020;2022-11-20T06:43:53;2.70;99.90
8220;DHT22;4151;51.110;7.020;2022-11-20T06:46:19;2.50;99.90
8220;DHT22;4151;51.110;7.020;2022-11-20T06:48:46;2.40;99.90
8220;DHT22;4151;51.110;7.020;2022-11-20T06:51:12;2.30;99.90
8220;DHT22;4151;51.110;7.020;2022-11-20T06:53:38;2.20;99.90
8220;DHT22;4151;51.110;7.020;2022-11-20T06:56:05;2.10;99.90
8220;DHT22;4151;51.110;7.020;2022-11-20T06:58:33;1.90;99.90
8220;DHT22;4151;51.110;7.020;2022-11-20T07:01:01;1.70;99.90
8220;DHT22;4151;51.110;7.020;2022-11-20T07:03:27;1.70;99.90
8220;DHT22;4151;51.110;7.020;2022-11-20T07:05:55;1.50;99.90
8220;DHT22;4151;51.110;7.020;2022-11-20T07:08:21;1.50;99.90
8220;DHT22;4151;51.110;7.020;2022-11-20T07:10:47;1.40;99.90
8220;DHT22;4151;51.110;7.020;2022-11-20T07:13:12;1.40;99.90
8220;DHT22;4151;51.110;7.020;2022-11-20T07:15:38;1.40;99.90
8220;DHT22;4151;51.110;7.020;2022-11-20T07:18:03;1.30;99.90
8220;DHT22;4151;51.110;7.020;2022-11-20T07:20:29;1.30;99.90
8220;DHT22;4151;51.110;7.020;2022-11-20T07:22:55;1.30;99.90
8220;DHT22;4151;51.110;7.020;2022-11-20T07:25:22;1.40;99.90
8220;DHT22;4151;51.110;7.020;2022-11-20T07:27:48;1.50;99.90
8220;DHT22;4151;51.110;7.020;2022-11-20T07:30:14;1.60;99.90
8220;DHT22;4151;51.110;7.020;2022-11-20T07:32:40;1.60;99.90
8220;DHT22;4151;51.110;7.020;2022-11-20T07:35:06;1.60;99.90
8220;DHT22;4151;51.110;7.020;2022-11-20T07:37:34;1.70;99.90
8220;DHT22;4151;51.110;7.020;2022-11-20T07:40:00;1.70;99.90
8220;DHT22;4151;51.110;7.020;2022-11-20T07:42:25;1.70;99.90
8220;DHT22;4151;51.110;7.020;2022-11-20T07:44:51;1.80;99.90
8220;DHT22;4151;51.110;7.020;2022-11-20T07:47:16;1.80;99.90
8220;DHT22;4151;51.110;7.020;2022-11-20T07:49:42;1.90;99.90
8220;DHT22;4151;51.110;7.020;2022-11-20T07:52:08;2.00;99.90
8220;DHT22;4151;51.110;7.020;2022-11-20T07:54:33;2.10;99.90
8220;DHT22;4151;51.110;7.020;2022-11-20T07:56:59;2.10;99.90
8220;DHT22;4151;51.110;7.020;2022-11-20T07:59:24;2.20;99.90
8220;DHT22;4151;51.110;7.020;2022-11-20T08:01:50;2.30;99.90
8220;DHT22;4151;51.110;7.020;2022-11-20T08:04:15;2.40;99.90
8220;DHT22;4151;51.110;7.020;2022-11-20T08:06:41;2.40;99.90
8220;DHT22;4151;51.110;7.020;2022-11-20T08:09:07;2.50;99.90
8220;DHT22;4151;51.110;7.020;2022-11-20T08:11:32;2.50;99.90
8220;DHT22;4151;51.110;7.020;2022-11-20T08:14:17;2.50;99.90
8220;DHT22;4151;51.110;7.020;2022-11-20T08:16:45;2.50;99.90
8220;DHT22;4151;51.110;7.020;2022-11-20T08:19:12;2.70;99.90
8220;DHT22;4151;51.110;7.020;2022-11-20T08:21:38;2.80;99.90
8220;DHT22;4151;51.110;7.020;2022-11-20T08:24:05;3.00;99.90
8220;DHT22;4151;51.110;7.020;2022-11-20T08:26:31;3.20;99.90
8220;DHT22;4151;51.110;7.020;2022-11-20T08:28:57;3.40;99.90
8220;DHT22;4151;51.110;7.020;2022-11-20T08:31:24;3.60;99.90
8220;DHT22;4151;51.110;7.020;2022-11-20T08:33:50;3.80;99.90
8220;DHT22;4151;51.110;7.020;2022-11-20T08:36:17;3.90;99.90
8220;DHT22;4151;51.110;7.020;2022-11-20T08:38:47;4.00;99.90
8220;DHT22;4151;51.110;7.020;2022-11-20T08:41:13;4.10;99.90
8220;DHT22;4151;51.110;7.020;2022-11-20T08:43:59;4.10;99.90
8220;DHT22;4151;51.110;7.020;2022-11-20T08:46:27;4.30;99.90
8220;DHT22;4151;51.110;7.020;2022-11-20T08:48:53;4.20;99.90
8220;DHT22;4151;51.110;7.020;2022-11-20T08:51:20;4.00;99.90
8220;DHT22;4151;51.110;7.020;2022-11-20T08:53:45;3.80;99.90
8220;DHT22;4151;51.110;7.020;2022-11-20T08:56:12;3.70;99.90
8220;DHT22;4151;51.110;7.020;2022-11-20T08:58:39;3.70;99.90
8220;DHT22;4151;51.110;7.020;2022-11-20T09:01:05;3.80;99.90
8220;DHT22;4151;51.110;7.020;2022-11-20T09:03:30;3.90;99.90
8220;DHT22;4151;51.110;7.020;2022-11-20T09:06:00;3.90;99.90
8220;DHT22;4151;51.110;7.020;2022-11-20T09:08:27;3.90;99.90
8220;DHT22;4151;51.110;7.020;2022-11-20T09:10:54;3.90;99.90
8220;DHT22;4151;51.110;7.020;2022-11-20T09:13:21;3.90;99.90
8220;DHT22;4151;51.110;7.020;2022-11-20T09:15:47;4.00;99.90
8220;DHT22;4151;51.110;7.020;2022-11-20T09:18:12;4.00;99.90
8220;DHT22;4151;51.110;7.020;2022-11-20T09:20:38;4.10;99.90
8220;DHT22;4151;51.110;7.020;2022-11-20T09:23:03;4.00;99.90
8220;DHT22;4151;51.110;7.020;2022-11-20T09:25:29;4.00;99.90
8220;DHT22;4151;51.110;7.020;2022-11-20T09:27:56;4.10;99.90
8220;DHT22;4151;51.110;7.020;2022-11-20T09:30:21;4.10;99.90
8220;DHT22;4151;51.110;7.020;2022-11-20T09:32:47;4.20;99.90
8220;DHT22;4151;51.110;7.020;2022-11-20T09:35:13;4.20;99.90
8220;DHT22;4151;51.110;7.020;2022-11-20T09:37:39;4.20;99.90
8220;DHT22;4151;51.110;7.020;2022-11-20T09:40:06;4.20;99.90
8220;DHT22;4151;51.110;7.020;2022-11-20T09:42:41;4.30;99.90
8220;DHT22;4151;51.110;7.020;2022-11-20T09:50:29;4.40;99.90
8220;DHT22;4151;51.110;7.020;2022-11-20T09:55:57;4.70;99.90
8220;DHT22;4151;51.110;7.020;2022-11-20T09:58:35;5.00;99.90
8220;DHT22;4151;51.110;7.020;2022-11-20T10:01:14;5.20;99.90
8220;DHT22;4151;51.110;7.020;2022-11-20T10:04:00;5.20;99.90
8220;DHT22;4151;51.110;7.020;2022-11-20T10:06:47;5.10;99.90
8220;DHT22;4151;51.110;7.020;2022-11-20T10:09:37;5.10;99.90
8220;DHT22;4151;51.110;7.020;2022-11-20T10:15:03;5.50;99.90
8220;DHT22;4151;51.110;7.020;2022-11-20T10:24:20;5.60;99.90
8220;DHT22;4151;51.110;7.020;2022-11-20T10:31:56;5.50;99.90
8220;DHT22;4151;51.110;7.020;2022-11-20T10:34:27;5.30;99.90
8220;DHT22;4151;51.110;7.020;2022-11-20T10:37:09;5.30;99.90
8220;DHT22;4151;51.110;7.020;2022-11-20T10:39:42;5.30;99.90
8220;DHT22;4151;51.110;7.020;2022-11-20T10:42:16;5.30;99.90
8220;DHT22;4151;51.110;7.020;2022-11-20T10:44:51;5.20;99.90
8220;DHT22;4151;51.110;7.020;2022-11-20T10:47:28;5.10;99.90
8220;DHT22;4151;51.110;7.020;2022-11-20T10:49:58;5.00;99.90
8220;DHT22;4151;51.110;7.020;2022-11-20T10:53:04;5.00;99.90
8220;DHT22;4151;51.110;7.020;2022-11-20T12:31:59;5.70;99.90
8220;DHT22;4151;51.110;7.020;2022-11-20T12:37:16;5.60;99.90
8220;DHT22;4151;51.110;7.020;2022-11-20T12:39:48;5.70;99.90
8220;DHT22;4151;51.110;7.020;2022-11-20T12:42:30;5.80;99.90
8220;DHT22;4151;51.110;7.020;2022-11-20T12:58:56;5.50;99.90
8220;DHT22;4151;51.110;7.020;2022-11-20T13:01:32;5.50;99.90
8220;DHT22;4151;51.110;7.020;2022-11-20T13:06:55;5.50;99.90
8220;DHT22;4151;51.110;7.020;2022-11-20T13:09:22;5.40;99.90
8220;DHT22;4151;51.110;7.020;2022-11-20T13:17:34;5.50;99.90
8220;DHT22;4151;51.110;7.020;2022-11-20T13:20:04;5.60;99.90
8220;DHT22;4151;51.110;7.020;2022-11-20T13:22:46;5.60;99.90
8220;DHT22;4151;51.110;7.020;2022-11-20T13:27:53;5.50;99.90
8220;DHT22;4151;51.110;7.020;2022-11-20T13:30:21;5.50;99.90
8220;DHT22;4151;51.110;7.020;2022-11-20T13:32:55;5.50;99.90
8220;DHT22;4151;51.110;7.020;2022-11-20T13:35:54;5.50;99.90
8220;DHT22;4151;51.110;7.020;2022-11-20T13:38:19;5.60;99.90
8220;DHT22;4151;51.110;7.020;2022-11-20T13:40:59;5.50;99.90
8220;DHT22;4151;51.110;7.020;2022-11-20T13:43:47;5.60;99.90
8220;DHT22;4151;51.110;7.020;2022-11-20T13:46:12;5.70;99.90
8220;DHT22;4151;51.110;7.020;2022-11-20T13:48:41;5.80;99.90
8220;DHT22;4151;51.110;7.020;2022-11-20T13:51:32;5.90;99.90
8220;DHT22;4151;51.110;7.020;2022-11-20T13:54:38;5.90;99.90
8220;DHT22;4151;51.110;7.020;2022-11-20T14:00:17;5.90;99.90
8220;DHT22;4151;51.110;7.020;2022-11-20T14:02:44;5.90;99.90
8220;DHT22;4151;51.110;7.020;2022-11-20T14:05:21;6.00;99.90
8220;DHT22;4151;51.110;7.020;2022-11-20T14:07:48;6.00;99.90
8220;DHT22;4151;51.110;7.020;2022-11-20T14:10:23;5.90;99.90
8220;DHT22;4151;51.110;7.020;2022-11-20T14:12:49;5.90;99.90
8220;DHT22;4151;51.110;7.020;2022-11-20T14:15:33;5.90;99.90
8220;DHT22;4151;51.110;7.020;2022-11-20T14:17:59;5.90;99.90
8220;DHT22;4151;51.110;7.020;2022-11-20T14:20:28;5.80;99.90
8220;DHT22;4151;51.110;7.020;2022-11-20T14:22:54;5.80;99.90
8220;DHT22;4151;51.110;7.020;2022-11-20T14:25:25;5.70;99.90
8220;DHT22;4151;51.110;7.020;2022-11-20T14:28:00;5.70;99.90
8220;DHT22;4151;51.110;7.020;2022-11-20T14:30:28;5.60;99.90
8220;DHT22;4151;51.110;7.020;2022-11-20T14:33:00;5.60;99.90
8220;DHT22;4151;51.110;7.020;2022-11-20T14:35:28;5.60;99.90
8220;DHT22;4151;51.110;7.020;2022-11-20T14:37:55;5.70;99.90
8220;DHT22;4151;51.110;7.020;2022-11-20T14:40:31;5.70;99.90
8220;DHT22;4151;51.110;7.020;2022-11-20T14:42:58;5.70;99.90
8220;DHT22;4151;51.110;7.020;2022-11-20T14:45:25;5.70;99.90
8220;DHT22;4151;51.110;7.020;2022-11-20T14:47:52;5.70;99.90
8220;DHT22;4151;51.110;7.020;2022-11-20T14:50:26;5.70;99.90
8220;DHT22;4151;51.110;7.020;2022-11-20T14:52:57;5.70;99.90
8220;DHT22;4151;51.110;7.020;2022-11-20T14:55:36;5.60;99.90
8220;DHT22;4151;51.110;7.020;2022-11-20T14:58:19;5.70;99.90
8220;DHT22;4151;51.110;7.020;2022-11-20T15:00:57;5.70;99.90
8220;DHT22;4151;51.110;7.020;2022-11-20T15:03:34;5.60;99.90
8220;DHT22;4151;51.110;7.020;2022-11-20T15:06:00;5.60;99.90
8220;DHT22;4151;51.110;7.020;2022-11-20T15:08:26;5.60;99.90
8220;DHT22;4151;51.110;7.020;2022-11-20T15:10:53;5.60;99.90
8220;DHT22;4151;51.110;7.020;2022-11-20T15:13:36;5.60;99.90
8220;DHT22;4151;51.110;7.020;2022-11-20T15:16:03;5.50;99.90
8220;DHT22;4151;51.110;7.020;2022-11-20T15:18:37;5.50;99.90
8220;DHT22;4151;51.110;7.020;2022-11-20T15:21:06;5.50;99.90
8220;DHT22;4151;51.110;7.020;2022-11-20T15:23:35;5.50;99.90
8220;DHT22;4151;51.110;7.020;2022-11-20T15:26:00;5.50;99.90
8220;DHT22;4151;51.110;7.020;2022-11-20T15:28:30;5.50;99.90
8220;DHT22;4151;51.110;7.020;2022-11-20T15:30:56;5.50;99.90
8220;DHT22;4151;51.110;7.020;2022-11-20T15:33:21;5.50;99.90
8220;DHT22;4151;51.110;7.020;2022-11-20T15:35:47;5.50;99.90
8220;DHT22;4151;51.110;7.020;2022-11-20T15:38:13;5.50;99.90
8220;DHT22;4151;51.110;7.020;2022-11-20T15:40:38;5.40;99.90
8220;DHT22;4151;51.110;7.020;2022-11-20T15:43:04;5.40;99.90
8220;DHT22;4151;51.110;7.020;2022-11-20T15:48:02;5.30;99.90
8220;DHT22;4151;51.110;7.020;2022-11-20T15:50:33;5.30;99.90
8220;DHT22;4151;51.110;7.020;2022-11-20T15:53:01;5.20;99.90
8220;DHT22;4151;51.110;7.020;2022-11-20T15:55:26;5.20;99.90
8220;DHT22;4151;51.110;7.020;2022-11-20T15:57:52;5.20;99.90
8220;DHT22;4151;51.110;7.020;2022-11-20T16:00:17;5.20;99.90
8220;DHT22;4151;51.110;7.020;2022-11-20T16:02:43;5.20;99.90
8220;DHT22;4151;51.110;7.020;2022-11-20T16:05:11;5.20;99.90
8220;DHT22;4151;51.110;7.020;2022-11-20T16:07:37;5.20;99.90
8220;DHT22;4151;51.110;7.020;2022-11-20T16:10:03;5.20;99.90
8220;DHT22;4151;51.110;7.020;2022-11-20T16:12:29;5.20;99.90
8220;DHT22;4151;51.110;7.020;2022-11-20T16:15:13;5.20;99.90
8220;DHT22;4151;51.110;7.020;2022-11-20T16:17:57;5.20;99.90
8220;DHT22;4151;51.110;7.020;2022-11-20T16:20:23;5.20;99.90
8220;DHT22;4151;51.110;7.020;2022-11-20T16:22:48;5.20;99.90
8220;DHT22;4151;51.110;7.020;2022-11-20T16:25:14;5.20;99.90
8220;DHT22;4151;51.110;7.020;2022-11-20T16:27:39;5.30;99.90
8220;DHT22;4151;51.110;7.020;2022-11-20T16:30:05;5.30;99.90
8220;DHT22;4151;51.110;7.020;2022-11-20T16:32:32;5.30;99.90
8220;DHT22;4151;51.110;7.020;2022-11-20T16:34:57;5.30;99.90
8220;DHT22;4151;51.110;7.020;2022-11-20T16:37:23;5.30;99.90
8220;DHT22;4151;51.110;7.020;2022-11-20T16:39:48;5.40;99.90
8220;DHT22;4151;51.110;7.020;2022-11-20T16:42:14;5.40;99.90
8220;DHT22;4151;51.110;7.020;2022-11-20T16:44:39;5.40;99.90
8220;DHT22;4151;51.110;7.020;2022-11-20T16:47:05;5.40;99.90
8220;DHT22;4151;51.110;7.020;2022-11-20T16:49:30;5.40;99.90
8220;DHT22;4151;51.110;7.020;2022-11-20T16:51:57;5.40;99.90
8220;DHT22;4151;51.110;7.020;2022-11-20T16:54:23;5.40;99.90
8220;DHT22;4151;51.110;7.020;2022-11-20T16:56:49;5.40;99.90
8220;DHT22;4151;51.110;7.020;2022-11-20T16:59:16;5.50;99.90
8220;DHT22;4151;51.110;7.020;2022-11-20T17:01:42;5.50;99.90
8220;DHT22;4151;51.110;7.020;2022-11-20T17:04:08;5.50;99.90
8220;DHT22;4151;51.110;7.020;2022-11-20T17:06:35;5.50;99.90
8220;DHT22;4151;51.110;7.020;2022-11-20T17:09:03;5.50;99.90
8220;DHT22;4151;51.110;7.020;2022-11-20T17:11:28;5.50;99.90
8220;DHT22;4151;51.110;7.020;2022-11-20T17:13:55;5.50;99.90
8220;DHT22;4151;51.110;7.020;2022-11-20T17:16:23;5.50;99.90
8220;DHT22;4151;51.110;7.020;2022-11-20T17:18:48;5.60;99.90
8220;DHT22;4151;51.110;7.020;2022-11-20T17:21:15;5.60;99.90
8220;DHT22;4151;51.110;7.020;2022-11-20T17:23:42;5.60;99.90
8220;DHT22;4151;51.110;7.020;2022-11-20T17:26:12;5.60;99.90
8220;DHT22;4151;51.110;7.020;2022-11-20T17:28:39;5.60;99.90
8220;DHT22;4151;51.110;7.020;2022-11-20T17:31:10;5.60;99.90
8220;DHT22;4151;51.110;7.020;2022-11-20T17:33:37;5.60;99.90
8220;DHT22;4151;51.110;7.020;2022-11-20T17:36:05;5.60;99.90
8220;DHT22;4151;51.110;7.020;2022-11-20T17:38:31;5.60;99.90
8220;DHT22;4151;51.110;7.020;2022-11-20T17:41:04;5.60;99.90
8220;DHT22;4151;51.110;7.020;2022-11-20T17:43:30;5.60;99.90
8220;DHT22;4151;51.110;7.020;2022-11-20T17:45:56;5.60;99.90
8220;DHT22;4151;51.110;7.020;2022-11-20T17:48:21;5.70;99.90
8220;DHT22;4151;51.110;7.020;2022-11-20T17:50:47;5.70;99.90
8220;DHT22;4151;51.110;7.020;2022-11-20T17:53:12;5.70;99.90
8220;DHT22;4151;51.110;7.020;2022-11-20T17:55:38;5.70;99.90
8220;DHT22;4151;51.110;7.020;2022-11-20T17:58:22;5.70;99.90
8220;DHT22;4151;51.110;7.020;2022-11-20T18:00:47;5.70;99.90
8220;DHT22;4151;51.110;7.020;2022-11-20T18:03:13;5.70;99.90
8220;DHT22;4151;51.110;7.020;2022-11-20T18:05:39;5.70;99.90
8220;DHT22;4151;51.110;7.020;2022-11-20T18:08:04;5.70;99.90
8220;DHT22;4151;51.110;7.020;2022-11-20T18:10:30;5.70;99.90
8220;DHT22;4151;51.110;7.020;2022-11-20T18:12:56;5.70;99.90
8220;DHT22;4151;51.110;7.020;2022-11-20T18:15:21;5.70;99.90
8220;DHT22;4151;51.110;7.020;2022-11-20T18:17:47;5.70;99.90
8220;DHT22;4151;51.110;7.020;2022-11-20T18:20:13;5.70;99.90
8220;DHT22;4151;51.110;7.020;2022-11-20T18:22:38;5.70;99.90
8220;DHT22;4151;51.110;7.020;2022-11-20T18:25:04;5.70;99.90
8220;DHT22;4151;51.110;7.020;2022-11-20T18:27:31;5.70;99.90
8220;DHT22;4151;51.110;7.020;2022-11-20T18:29:56;5.70;99.90
8220;DHT22;4151;51.110;7.020;2022-11-20T18:32:22;5.80;99.90
8220;DHT22;4151;51.110;7.020;2022-11-20T18:34:48;5.80;99.90
8220;DHT22;4151;51.110;7.020;2022-11-20T18:37:14;5.80;99.90
8220;DHT22;4151;51.110;7.020;2022-11-20T18:39:41;5.80;99.90
8220;DHT22;4151;51.110;7.020;2022-11-20T18:42:09;5.80;99.90
8220;DHT22;4151;51.110;7.020;2022-11-20T18:44:53;5.90;99.90
8220;DHT22;4151;51.110;7.020;2022-11-20T18:47:24;5.90;99.90
8220;DHT22;4151;51.110;7.020;2022-11-20T18:49:53;5.90;99.90
8220;DHT22;4151;51.110;7.020;2022-11-20T18:52:21;5.90;99.90
8220;DHT22;4151;51.110;7.020;2022-11-20T18:54:46;5.90;99.90
8220;DHT22;4151;51.110;7.020;2022-11-20T18:57:12;6.00;99.90
8220;DHT22;4151;51.110;7.020;2022-11-20T18:59:40;6.00;99.90
8220;DHT22;4151;51.110;7.020;2022-11-20T19:02:12;6.00;99.90
8220;DHT22;4151;51.110;7.020;2022-11-20T19:04:38;6.10;99.90